Batna, Batna International Airport (DABT)

NameBatna International Airport
CityBatna
CountryAlgeria
ICAODABT
IATABLJ
Altitude1050 m
CoordinatesGoogle Map
Live Air TrafficLiveATC.net
METARDABT 251700Z 21005KT 9999 SCT020 BKN023 19/06 Q1010
2020-04-25 17:00:00 Wind: South-Southwest (210°) 2.57 m/s - Visibility: > 10000 m - Temperature: 19 °C - Dew point: 6 °C - Humidity: 42.8% - Pressure: 1010 hPa

Sorry, no flights used the airport in this database.